Time;durP1;ratioP1;P1;durP2;ratioP2;P2;SDS_P1;SDS_P2;PMS_P1;PMS_P2;Temp;Humidity;BMP_temperature;BMP_pressure;BME280_temperature;BME280_humidity;BME280_pressure;Samples;Min_cycle;Max_cycle;Signal;HPM_P1;HPM_P2
2022/10/06 00:01:30;;;;;;;;;;;;;;;13.54;79.56;102118.78;5038404;28;19921;-68
2022/10/06 00:03:55;;;;;;;;;;;;;;;13.52;79.62;102124.78;5033546;28;20007;-68
2022/10/06 00:06:21;;;;;;;;;;;;;;;13.49;79.33;102137.78;5022644;28;20024;-68
2022/10/06 00:08:46;;;;;;;;;;;;;;;13.47;79.19;102136.84;5023879;28;20319;-68
2022/10/06 00:11:12;;;;;;;;;;;;;;;13.47;79.08;102144.69;5021190;28;19925;-68
2022/10/06 00:13:37;;;;;;;;;;;;;;;13.46;79.17;102153.41;5020353;28;19923;-68
2022/10/06 00:16:08;;;;;;;;;;;;;;;13.44;79.06;102162.91;5020970;28;19913;-68
2022/10/06 00:18:33;;;;;;;;;;;;;;;13.42;78.93;102155.03;5021798;28;19982;-68
2022/10/06 00:20:59;;;;;;;;;;;;;;;13.43;78.92;102167.28;5023757;28;19925;-68
2022/10/06 00:23:25;;;;;;;;;;;;;;;13.43;78.87;102167.28;5021662;28;20519;-68
2022/10/06 00:25:50;;;;;;;;;;;;;;;13.43;78.84;102174.25;5021442;28;19917;-68
2022/10/06 00:28:15;;;;;;;;;;;;;;;13.42;78.88;102181.19;5022156;28;19917;-68
2022/10/06 00:30:41;;;;;;;;;;;;;;;13.39;78.82;102187.22;5021128;28;20400;-68
2022/10/06 00:33:06;;;;;;;;;;;;;;;13.37;78.97;102191.53;5021747;28;19939;-68
2022/10/06 00:35:33;;;;;;;;;;;;;;;13.35;78.89;102187.97;5022353;28;20265;-68
2022/10/06 00:38:01;;;;;;;;;;;;;;;13.33;79.00;102196.56;5020876;28;19910;-74
2022/10/06 00:40:26;;;;;;;;;;;;;;;13.32;79.22;102195.66;5023890;28;20373;-74
2022/10/06 00:42:51;;;;;;;;;;;;;;;13.31;79.24;102208.72;5030966;28;19993;-74
2022/10/06 00:45:18;;;;;;;;;;;;;;;13.30;79.71;102205.22;5020758;28;20000;-74
2022/10/06 00:47:44;;;;;;;;;;;;;;;13.29;79.34;102203.41;5019659;28;19928;-74
2022/10/06 00:50:10;;;;;;;;;;;;;;;13.29;79.58;102211.28;5019651;28;19917;-74
2022/10/06 00:52:37;;;;;;;;;;;;;;;13.29;79.70;102206.03;5020032;28;19920;-74
2022/10/06 00:55:03;;;;;;;;;;;;;;;13.28;79.54;102212.13;5021606;28;19921;-74
2022/10/06 00:57:28;;;;;;;;;;;;;;;13.28;79.77;102213.84;5024080;28;19963;-74
2022/10/06 00:59:53;;;;;;;;;;;;;;;13.23;79.45;102221.53;5043599;28;19920;-74
2022/10/06 01:02:25;;;;;;;;;;;;;;;13.19;79.55;102224.88;5038738;28;19951;-74
2022/10/06 01:04:54;;;;;;;;;;;;;;;13.17;79.72;102223.94;5036175;28;19921;-74
2022/10/06 01:07:20;;;;;;;;;;;;;;;13.14;79.54;102226.47;5038924;28;19958;-67
2022/10/06 01:09:45;;;;;;;;;;;;;;;13.08;79.55;102224.53;5029028;28;19953;-68
2022/10/06 01:12:11;;;;;;;;;;;;;;;13.08;79.71;102234.06;5026346;28;20404;-68
2022/10/06 01:14:38;;;;;;;;;;;;;;;13.05;79.53;102240.13;5019777;28;19917;-68
2022/10/06 01:17:06;;;;;;;;;;;;;;;13.04;79.65;102243.56;5020566;28;19975;-68
2022/10/06 01:19:45;;;;;;;;;;;;;;;13.01;79.83;102254.78;5019213;28;19958;-68
2022/10/06 01:22:13;;;;;;;;;;;;;;;12.97;79.44;102258.13;5024002;28;20071;-67
2022/10/06 01:24:38;;;;;;;;;;;;;;;12.96;79.34;102256.38;5036370;28;19925;-68
2022/10/06 01:27:04;;;;;;;;;;;;;;;12.93;79.51;102257.97;5037786;28;20362;-68
2022/10/06 01:29:33;;;;;;;;;;;;;;;12.90;79.32;102263.09;5024526;28;19965;-68
2022/10/06 01:31:59;;;;;;;;;;;;;;;12.87;79.33;102267.41;5020562;28;20006;-68
2022/10/06 01:34:24;;;;;;;;;;;;;;;12.85;79.20;102268.16;5019956;28;20369;-67
2022/10/06 01:36:49;;;;;;;;;;;;;;;12.83;79.28;102269.81;5019236;28;20004;-68
2022/10/06 01:39:14;;;;;;;;;;;;;;;12.83;79.12;102277.66;5019392;28;20011;-68
2022/10/06 01:41:40;;;;;;;;;;;;;;;12.82;79.21;102282.00;5019791;28;19913;-68
2022/10/06 01:44:05;;;;;;;;;;;;;;;12.82;79.12;102292.47;5019586;28;19921;-68
2022/10/06 01:46:30;;;;;;;;;;;;;;;12.81;79.17;102284.56;5048411;28;19966;-68
2022/10/06 01:48:55;;;;;;;;;;;;;;;12.79;79.14;102276.66;5038306;28;20008;-68
2022/10/06 01:51:21;;;;;;;;;;;;;;;12.78;79.08;102289.69;5043382;28;19983;-68
2022/10/06 01:53:46;;;;;;;;;;;;;;;12.77;78.97;102304.47;5033041;28;19921;-68
2022/10/06 01:56:12;;;;;;;;;;;;;;;12.75;78.92;102300.91;5043491;28;19913;-68
2022/10/06 01:58:37;;;;;;;;;;;;;;;12.73;79.18;102301.69;5031446;28;19995;-67
2022/10/06 02:01:07;;;;;;;;;;;;;;;12.68;79.03;102305.00;5031658;28;19966;-68
2022/10/06 02:03:33;;;;;;;;;;;;;;;12.65;79.10;102304.91;5019165;28;19925;-67
2022/10/06 02:05:58;;;;;;;;;;;;;;;12.67;79.08;102302.34;5021805;28;20387;-67
2022/10/06 02:08:23;;;;;;;;;;;;;;;12.64;78.97;102297.91;5025067;28;19920;-74
2022/10/06 02:10:49;;;;;;;;;;;;;;;12.63;78.93;102309.19;5031037;28;19925;-74
2022/10/06 02:13:15;;;;;;;;;;;;;;;12.59;79.02;102314.25;5030674;28;19921;-74
2022/10/06 02:15:40;;;;;;;;;;;;;;;12.58;78.99;102318.56;5027626;28;20405;-74
2022/10/06 02:18:05;;;;;;;;;;;;;;;12.57;78.83;102324.66;5034429;28;19960;-74
2022/10/06 02:20:30;;;;;;;;;;;;;;;12.55;78.82;102322.81;5030684;28;19924;-74
2022/10/06 02:22:56;;;;;;;;;;;;;;;12.52;78.86;102336.63;5031301;28;19920;-74
2022/10/06 02:25:21;;;;;;;;;;;;;;;12.52;78.87;102334.91;5036683;28;20458;-74
2022/10/06 02:27:46;;;;;;;;;;;;;;;12.48;78.87;102333.03;5033155;28;19917;-74
2022/10/06 02:30:13;;;;;;;;;;;;;;;12.47;78.83;102346.91;5032624;28;20377;-74
2022/10/06 02:32:39;;;;;;;;;;;;;;;12.44;78.52;102345.88;5038415;28;19962;-74
2022/10/06 02:35:05;;;;;;;;;;;;;;;12.42;78.96;102347.56;5026207;28;19921;-74
2022/10/06 02:37:30;;;;;;;;;;;;;;;12.39;78.85;102353.56;5030833;28;19917;-74
2022/10/06 02:39:56;;;;;;;;;;;;;;;12.38;78.97;102356.09;5027947;28;19925;-74
2022/10/06 02:42:21;;;;;;;;;;;;;;;12.34;78.82;102353.38;5027110;28;20766;-74
2022/10/06 02:44:46;;;;;;;;;;;;;;;12.33;79.04;102366.38;5030343;28;19979;-73
2022/10/06 02:47:15;;;;;;;;;;;;;;;12.29;79.06;102373.19;5031249;28;19987;-74
2022/10/06 02:49:40;;;;;;;;;;;;;;;12.30;78.95;102377.59;5030024;28;19957;-74
2022/10/06 02:52:05;;;;;;;;;;;;;;;12.30;78.98;102379.31;5036682;28;20357;-74
2022/10/06 02:54:31;;;;;;;;;;;;;;;12.29;79.07;102377.53;5042609;28;19917;-74
2022/10/06 02:56:57;;;;;;;;;;;;;;;12.26;79.17;102380.03;5025208;28;19921;-74
2022/10/06 02:59:22;;;;;;;;;;;;;;;12.24;79.25;102393.03;5028232;28;20008;-74
2022/10/06 03:01:47;;;;;;;;;;;;;;;12.19;79.11;102389.31;5036114;28;19924;-74
2022/10/06 03:04:12;;;;;;;;;;;;;;;12.16;79.18;102386.56;5029343;28;20190;-74
2022/10/06 03:06:37;;;;;;;;;;;;;;;12.14;79.41;102394.34;5029000;28;19917;-74
2022/10/06 03:09:04;;;;;;;;;;;;;;;12.15;79.44;102397.84;5038685;28;19921;-74
2022/10/06 03:11:31;;;;;;;;;;;;;;;12.14;79.22;102409.16;5031158;28;19921;-74
2022/10/06 03:13:56;;;;;;;;;;;;;;;12.10;79.38;102407.22;5025005;28;20689;-74
2022/10/06 03:16:29;;;;;;;;;;;;;;;12.04;79.52;102409.59;5030641;28;19967;-74
2022/10/06 03:18:55;;;;;;;;;;;;;;;12.02;79.71;102413.84;5021654;28;19980;-74
2022/10/06 03:21:25;;;;;;;;;;;;;;;11.99;79.63;102418.13;5020838;28;19924;-74
2022/10/06 03:23:52;;;;;;;;;;;;;;;11.97;79.57;102418.88;5039932;28;19917;-74
2022/10/06 03:26:19;;;;;;;;;;;;;;;11.93;79.77;102412.59;5032144;28;19921;-74
2022/10/06 03:28:44;;;;;;;;;;;;;;;11.90;80.06;102422.91;5036256;28;20405;-74
2022/10/06 03:31:09;;;;;;;;;;;;;;;11.87;79.77;102435.81;5042499;28;19951;-74
2022/10/06 03:33:35;;;;;;;;;;;;;;;11.82;79.97;102430.41;5035983;28;20305;-74
2022/10/06 03:36:01;;;;;;;;;;;;;;;11.80;80.26;102436.38;5041978;28;19917;-74
2022/10/06 03:38:26;;;;;;;;;;;;;;;11.79;80.00;102442.44;5033988;28;19923;-68
2022/10/06 03:40:51;;;;;;;;;;;;;;;11.76;80.09;102439.69;5031835;28;19917;-67
2022/10/06 03:43:17;;;;;;;;;;;;;;;11.73;80.20;102443.06;5032230;28;19925;-67
2022/10/06 03:45:42;;;;;;;;;;;;;;;11.72;80.11;102445.63;5044136;28;19969;-68
2022/10/06 03:48:07;;;;;;;;;;;;;;;11.68;80.38;102455.00;5030841;28;19917;-67
2022/10/06 03:50:32;;;;;;;;;;;;;;;11.69;80.07;102461.13;5030652;28;20288;-67
2022/10/06 03:52:57;;;;;;;;;;;;;;;11.64;80.25;102453.06;5035964;28;19924;-67
2022/10/06 03:55:22;;;;;;;;;;;;;;;11.61;80.38;102469.50;5038695;28;20000;-68
2022/10/06 03:57:48;;;;;;;;;;;;;;;11.57;80.47;102475.44;5021787;28;19909;-67
2022/10/06 04:00:13;;;;;;;;;;;;;;;11.54;80.47;102482.22;5022607;28;19972;-67
2022/10/06 04:02:38;;;;;;;;;;;;;;;11.50;80.31;102486.41;5023064;28;20400;-67
2022/10/06 04:05:04;;;;;;;;;;;;;;;11.48;80.35;102482.81;5021098;28;20403;-67
2022/10/06 04:07:29;;;;;;;;;;;;;;;11.45;80.67;102486.16;5020599;28;20373;-74
2022/10/06 04:09:54;;;;;;;;;;;;;;;11.45;80.51;102495.72;5025305;28;19932;-74
2022/10/06 04:12:19;;;;;;;;;;;;;;;11.45;80.31;102496.59;5021538;28;20348;-74
2022/10/06 04:14:44;;;;;;;;;;;;;;;11.45;80.35;102506.16;5023067;28;19921;-74
2022/10/06 04:17:10;;;;;;;;;;;;;;;11.43;80.52;102505.22;5021000;28;19970;-74
2022/10/06 04:19:35;;;;;;;;;;;;;;;11.39;80.51;102513.72;5023723;28;20023;-74
2022/10/06 04:22:00;;;;;;;;;;;;;;;11.36;80.51;102508.34;5021694;28;19917;-74
2022/10/06 04:24:26;;;;;;;;;;;;;;;11.33;80.50;102516.03;5022238;28;20088;-74
2022/10/06 04:26:51;;;;;;;;;;;;;;;11.29;80.64;102521.09;5021366;28;19998;-74
2022/10/06 04:29:16;;;;;;;;;;;;;;;11.27;80.67;102527.09;5022192;28;19924;-74
2022/10/06 04:31:42;;;;;;;;;;;;;;;11.24;80.61;102530.44;5021857;28;20758;-74
2022/10/06 04:34:08;;;;;;;;;;;;;;;11.25;80.84;102527.00;5022446;28;20885;-74
2022/10/06 04:36:35;;;;;;;;;;;;;;;11.24;80.65;102530.44;5027231;28;20354;-74
2022/10/06 04:39:01;;;;;;;;;;;;;;;11.22;80.59;102537.28;5021972;28;19917;-74
2022/10/06 04:41:27;;;;;;;;;;;;;;;11.20;80.62;102533.72;5019486;28;19944;-74
2022/10/06 04:43:53;;;;;;;;;;;;;;;11.20;80.92;102541.53;5023749;28;19917;-73
2022/10/06 04:46:19;;;;;;;;;;;;;;;11.16;80.38;102536.97;5022173;28;20239;-74
2022/10/06 04:48:44;;;;;;;;;;;;;;;11.14;80.75;102539.53;5020872;28;19979;-74
2022/10/06 04:51:11;;;;;;;;;;;;;;;11.12;80.72;102549.00;5022446;28;19925;-74
2022/10/06 04:53:36;;;;;;;;;;;;;;;11.12;80.75;102549.00;5021312;28;20270;-74
2022/10/06 04:56:05;;;;;;;;;;;;;;;11.10;80.57;102549.75;5019557;28;19916;-74
2022/10/06 04:58:32;;;;;;;;;;;;;;;11.07;80.89;102547.88;5023625;28;20460;-74
2022/10/06 05:00:57;;;;;;;;;;;;;;;11.06;80.67;102559.13;5020050;28;19925;-74
2022/10/06 05:03:22;;;;;;;;;;;;;;;11.02;80.73;102561.50;5023213;28;19950;-74
2022/10/06 05:05:48;;;;;;;;;;;;;;;10.97;80.66;102561.28;5028959;28;19935;-74
2022/10/06 05:08:13;;;;;;;;;;;;;;;10.95;80.77;102566.44;5030232;28;19917;-67
2022/10/06 05:10:38;;;;;;;;;;;;;;;10.94;80.71;102582.00;5027906;28;19920;-67
2022/10/06 05:13:04;;;;;;;;;;;;;;;10.91;80.89;102584.47;5022069;28;19927;-67
2022/10/06 05:15:30;;;;;;;;;;;;;;;10.86;81.19;102585.94;5019706;28;19913;-67
2022/10/06 05:17:55;;;;;;;;;;;;;;;10.85;80.79;102586.72;5021251;28;19944;-67
2022/10/06 05:20:21;;;;;;;;;;;;;;;10.81;80.67;102592.63;5020038;28;20169;-67
2022/10/06 05:22:47;;;;;;;;;;;;;;;10.76;80.85;102597.59;5022862;28;19929;-67
2022/10/06 05:25:12;;;;;;;;;;;;;;;10.71;80.94;102597.38;5024815;28;19971;-67
2022/10/06 05:27:37;;;;;;;;;;;;;;;10.71;81.25;102599.09;5034235;28;19921;-67
2022/10/06 05:30:02;;;;;;;;;;;;;;;10.72;81.02;102606.09;5039032;28;20305;-67
2022/10/06 05:32:27;;;;;;;;;;;;;;;10.69;81.13;102614.66;5037897;28;19920;-67
2022/10/06 05:34:53;;;;;;;;;;;;;;;10.67;80.86;102620.59;5037686;28;19921;-67
2022/10/06 05:37:18;;;;;;;;;;;;;;;10.65;81.00;102622.25;5034373;28;20027;-67
2022/10/06 05:39:43;;;;;;;;;;;;;;;10.63;80.98;102626.47;5041026;28;19921;-67
2022/10/06 05:42:08;;;;;;;;;;;;;;;10.63;80.87;102636.88;5038798;28;20145;-67
2022/10/06 05:44:33;;;;;;;;;;;;;;;10.61;80.88;102640.31;5039732;28;19921;-67
2022/10/06 05:46:59;;;;;;;;;;;;;;;10.58;81.08;102647.97;5050568;28;19964;-67
2022/10/06 05:49:24;;;;;;;;;;;;;;;10.53;81.05;102646.84;5036341;28;19925;-67
2022/10/06 05:51:49;;;;;;;;;;;;;;;10.50;81.11;102649.28;5040169;28;20015;-67
2022/10/06 05:54:14;;;;;;;;;;;;;;;10.48;80.89;102648.28;5043041;28;19928;-67
2022/10/06 05:56:40;;;;;;;;;;;;;;;10.47;81.02;102651.75;5043432;28;19921;-67
2022/10/06 05:59:05;;;;;;;;;;;;;;;10.46;81.07;102644.72;5030656;28;19929;-67
2022/10/06 06:01:31;;;;;;;;;;;;;;;10.48;81.21;102652.63;5044053;28;19920;-67
2022/10/06 06:03:59;;;;;;;;;;;;;;;10.47;81.22;102659.56;5027330;28;19921;-67
2022/10/06 06:06:28;;;;;;;;;;;;;;;10.47;81.04;102658.66;5030817;28;19921;-67
2022/10/06 06:09:01;;;;;;;;;;;;;;;10.44;81.22;102668.09;5025541;28;19923;-67
2022/10/06 06:11:27;;;;;;;;;;;;;;;10.43;81.15;102665.41;5029161;28;19960;-67
2022/10/06 06:13:55;;;;;;;;;;;;;;;10.42;80.97;102677.53;5028703;28;19927;-67
2022/10/06 06:16:20;;;;;;;;;;;;;;;10.40;81.07;102675.69;5049387;28;19922;-73
2022/10/06 06:18:45;;;;;;;;;;;;;;;10.39;81.03;102677.38;5047240;28;19916;-74
2022/10/06 06:21:11;;;;;;;;;;;;;;;10.38;81.14;102683.38;5031586;28;20000;-74
2022/10/06 06:23:37;;;;;;;;;;;;;;;10.38;81.30;102683.38;5040585;28;20429;-74
2022/10/06 06:26:08;;;;;;;;;;;;;;;10.38;81.09;102683.38;5023970;28;19909;-74
2022/10/06 06:28:34;;;;;;;;;;;;;;;10.38;81.13;102688.59;5019427;28;20061;-74
2022/10/06 06:31:01;;;;;;;;;;;;;;;10.41;81.03;102685.25;5018978;28;19928;-73
2022/10/06 06:33:26;;;;;;;;;;;;;;;10.39;80.93;102690.41;5017686;28;20085;-74
2022/10/06 06:35:51;;;;;;;;;;;;;;;10.38;81.26;102692.91;5018656;28;20404;-74
2022/10/06 06:38:17;;;;;;;;;;;;;;;10.38;81.53;102696.41;5018769;28;19925;-74
2022/10/06 06:40:43;;;;;;;;;;;;;;;10.36;81.28;102703.25;5019354;28;20292;-74
2022/10/06 06:43:11;;;;;;;;;;;;;;;10.36;81.24;102713.69;5019964;28;20039;-73
2022/10/06 06:45:36;;;;;;;;;;;;;;;10.36;81.32;102705.00;5027286;28;19921;-74
2022/10/06 06:48:02;;;;;;;;;;;;;;;10.36;81.38;102705.88;5029851;28;19917;-74
2022/10/06 06:50:27;;;;;;;;;;;;;;;10.38;81.30;102713.78;5020522;28;19917;-73
2022/10/06 06:52:53;;;;;;;;;;;;;;;10.37;81.48;102718.09;5017168;28;19925;-73
2022/10/06 06:55:18;;;;;;;;;;;;;;;10.35;81.41;102724.03;5019388;28;19921;-74
2022/10/06 06:57:45;;;;;;;;;;;;;;;10.34;81.41;102733.56;5033866;28;19971;-74
2022/10/06 07:00:11;;;;;;;;;;;;;;;10.34;81.44;102722.22;5038660;28;19976;-74
2022/10/06 07:02:36;;;;;;;;;;;;;;;10.39;81.58;102733.81;5036320;28;19921;-74
2022/10/06 07:05:01;;;;;;;;;;;;;;;10.40;81.62;102736.50;5032377;28;19928;-74
2022/10/06 07:07:27;;;;;;;;;;;;;;;10.42;81.48;102737.47;5034479;28;20342;-74
2022/10/06 07:09:52;;;;;;;;;;;;;;;10.41;82.03;102745.19;5040346;28;19920;-74
2022/10/06 07:12:17;;;;;;;;;;;;;;;10.41;81.69;102747.81;5039537;28;19931;-74
2022/10/06 07:25:05;;;;;;;;;;;;;;;10.42;81.75;102754.81;5034345;28;19917;-73
2022/10/06 07:25:39;;;;;;;;;;;;;;;10.48;81.82;102775.13;5032653;28;20317;-67
2022/10/06 07:28:06;;;;;;;;;;;;;;;10.49;82.19;102775.19;5047992;28;19913;-67
2022/10/06 07:30:31;;;;;;;;;;;;;;;10.50;81.85;102781.31;5035162;28;20019;-67
2022/10/06 07:32:56;;;;;;;;;;;;;;;10.53;81.83;102784.06;5035642;28;20024;-67
2022/10/06 07:35:22;;;;;;;;;;;;;;;10.56;81.85;102790.38;5028669;28;20387;-67
2022/10/06 07:37:50;;;;;;;;;;;;;;;10.59;82.10;102795.75;5022268;28;19917;-67
2022/10/06 07:40:15;;;;;;;;;;;;;;;10.61;82.15;102796.72;5022210;28;19921;-67
2022/10/06 07:42:47;;;;;;;;;;;;;;;10.64;81.92;102805.53;5023856;28;19978;-67
2022/10/06 07:48:00;;;;;;;;;;;;;;;10.70;81.66;102811.06;5022821;28;20221;-73
2022/10/06 07:50:25;;;;;;;;;;;;;;;10.74;81.84;102815.66;5021883;28;20040;-73
2022/10/06 07:52:51;;;;;;;;;;;;;;;10.77;82.15;102818.41;5027412;28;20371;-73
2022/10/06 07:55:17;;;;;;;;;;;;;;;10.81;82.03;102817.78;5030008;28;19991;-74
2022/10/06 07:57:45;;;;;;;;;;;;;;;10.85;81.81;102822.34;5025794;28;19970;-74
2022/10/06 08:00:14;;;;;;;;;;;;;;;10.90;81.95;102822.59;5030521;28;20032;-74
2022/10/06 08:02:39;;;;;;;;;;;;;;;10.94;82.52;102821.94;5022533;28;20397;-73
2022/10/06 08:05:05;;;;;;;;;;;;;;;10.98;82.13;102821.31;5024763;28;19917;-73
2022/10/06 08:07:31;;;;;;;;;;;;;;;11.01;82.24;102824.06;5029897;28;20312;-73
2022/10/06 08:09:56;;;;;;;;;;;;;;;11.06;81.81;102842.56;5026336;28;19921;-73
2022/10/06 08:12:33;;;;;;;;;;;;;;;11.11;82.06;102834.19;5044421;28;19927;-73
2022/10/06 08:15:02;;;;;;;;;;;;;;;11.16;81.62;102833.53;5035735;28;19929;-73
2022/10/06 08:17:27;;;;;;;;;;;;;;;11.20;81.88;102841.59;5029688;28;19995;-67
2022/10/06 08:19:53;;;;;;;;;;;;;;;11.24;82.01;102846.19;5028657;28;20015;-67
2022/10/06 08:22:18;;;;;;;;;;;;;;;11.31;81.66;102850.91;5034689;28;20003;-67
2022/10/06 08:24:43;;;;;;;;;;;;;;;11.37;81.34;102852.03;5045841;28;19994;-67
2022/10/06 08:27:08;;;;;;;;;;;;;;;11.42;81.55;102859.28;5043924;28;19916;-67
2022/10/06 08:29:34;;;;;;;;;;;;;;;11.47;81.52;102867.34;5041928;28;19959;-67
2022/10/06 08:31:59;;;;;;;;;;;;;;;11.53;81.04;102859.88;5045739;28;20304;-67
2022/10/06 08:34:24;;;;;;;;;;;;;;;11.59;81.21;102867.13;5043162;28;20376;-67
2022/10/06 08:36:50;;;;;;;;;;;;;;;11.64;81.29;102868.25;5043725;28;19916;-67
2022/10/06 08:39:15;;;;;;;;;;;;;;;11.69;80.91;102874.63;5037385;28;19920;-67
2022/10/06 08:41:50;;;;;;;;;;;;;;;11.73;81.25;102878.25;5041498;28;19970;-67
2022/10/06 08:44:36;;;;;;;;;;;;;;;11.78;81.09;102877.69;5040292;28;19909;-67
2022/10/06 08:47:10;;;;;;;;;;;;;;;11.84;81.23;102875.38;5036429;28;19929;-67
2022/10/06 08:49:40;;;;;;;;;;;;;;;11.92;80.57;102888.84;5031452;28;19917;-67
2022/10/06 08:52:18;;;;;;;;;;;;;;;11.98;80.60;102888.31;5047238;28;19917;-67
2022/10/06 08:55:02;;;;;;;;;;;;;;;12.04;80.64;102887.72;5048751;28;19923;-67
2022/10/06 08:57:35;;;;;;;;;;;;;;;12.10;80.83;102890.63;5050830;28;20418;-67
2022/10/06 09:00:02;;;;;;;;;;;;;;;12.15;80.63;102892.66;5043000;28;19940;-67
2022/10/06 09:02:27;;;;;;;;;;;;;;;12.20;80.53;102895.50;5038133;28;19927;-67
2022/10/06 09:04:55;;;;;;;;;;;;;;;12.26;80.15;102900.13;5036755;28;20289;-68
2022/10/06 09:07:39;;;;;;;;;;;;;;;12.30;80.09;102908.22;5044249;28;20324;-67
2022/10/06 09:10:22;;;;;;;;;;;;;;;12.37;79.65;102906.81;5051941;28;19916;-67
2022/10/06 09:12:54;;;;;;;;;;;;;;;12.43;79.29;102907.09;5031293;28;19929;-67
2022/10/06 09:15:28;;;;;;;;;;;;;;;12.48;79.38;102917.78;5041658;28;19917;-67
2022/10/06 09:18:16;;;;;;;;;;;;;;;12.52;79.22;102910.16;5041540;28;19966;-67
2022/10/06 09:20:52;;;;;;;;;;;;;;;12.57;79.04;102920.88;5028400;28;19943;-67
2022/10/06 09:23:46;;;;;;;;;;;;;;;12.63;79.25;102921.16;5038400;28;19983;-67
2022/10/06 09:26:04;;;;;;;;;;;;;;;12.68;79.34;102916.13;5047761;28;20376;-67
2022/10/06 09:28:29;;;;;;;;;;;;;;;12.74;78.59;102926.88;5037511;28;19917;-67
2022/10/06 09:30:55;;;;;;;;;;;;;;;12.80;78.60;102923.66;5046952;28;19997;-67
2022/10/06 09:33:23;;;;;;;;;;;;;;;12.85;78.56;102920.44;5046553;28;19913;-67
2022/10/06 09:36:07;;;;;;;;;;;;;;;12.91;78.40;102921.59;5034379;28;19917;-67
2022/10/06 09:38:46;;;;;;;;;;;;;;;12.97;78.05;102934.94;5033805;28;19920;-67
2022/10/06 09:41:12;;;;;;;;;;;;;;;13.02;78.11;102933.44;5041203;28;19917;-67
2022/10/06 09:43:38;;;;;;;;;;;;;;;13.08;78.24;102938.06;5045169;28;20435;-67
2022/10/06 09:46:21;;;;;;;;;;;;;;;13.14;78.14;102928.78;5039639;28;19932;-67
2022/10/06 09:48:46;;;;;;;;;;;;;;;13.25;78.33;102939.75;5036797;28;19924;-67
2022/10/06 09:51:12;;;;;;;;;;;;;;;13.31;78.20;102942.66;5029994;28;19921;-67
2022/10/06 09:53:38;;;;;;;;;;;;;;;13.43;77.81;102951.94;5035141;28;19970;-67
2022/10/06 09:56:09;;;;;;;;;;;;;;;13.52;77.70;102950.63;5033540;28;19921;-67
2022/10/06 09:58:37;;;;;;;;;;;;;;;13.61;77.26;102946.63;5031741;28;19924;-73
2022/10/06 10:01:05;;;;;;;;;;;;;;;13.68;77.00;102944.34;5040894;28;19917;-73
2022/10/06 10:03:48;;;;;;;;;;;;;;;13.79;76.72;102942.22;5040353;28;20008;-73
2022/10/06 10:06:26;;;;;;;;;;;;;;;13.91;76.19;102944.47;5039590;28;19968;-73
2022/10/06 10:08:53;;;;;;;;;;;;;;;14.01;76.13;102946.66;5034167;28;19924;-73
2022/10/06 10:14:14;;;;;;;;;;;;;;;14.22;75.22;102948.41;5029579;28;19928;-73
2022/10/06 10:16:39;;;;;;;;;;;;;;;14.37;75.09;102940.31;5036500;28;20361;-73
2022/10/06 10:19:09;;;;;;;;;;;;;;;14.54;75.31;102940.97;5041093;28;19952;-73
2022/10/06 10:21:35;;;;;;;;;;;;;;;14.71;74.53;102934.72;5027196;28;20594;-73
2022/10/06 10:24:02;;;;;;;;;;;;;;;14.91;74.24;102953.00;5024301;28;19931;-73
2022/10/06 10:26:46;;;;;;;;;;;;;;;15.09;73.37;102937.97;5031175;28;19920;-69
2022/10/06 10:29:29;;;;;;;;;;;;;;;15.22;70.70;102939.34;5037222;28;20520;-69
2022/10/06 10:32:01;;;;;;;;;;;;;;;15.36;71.88;102941.59;5027304;28;19938;-69
2022/10/06 10:34:45;;;;;;;;;;;;;;;15.53;72.26;102945.75;5031070;28;20407;-69
2022/10/06 10:37:13;;;;;;;;;;;;;;;15.68;71.12;102944.53;5028894;28;19939;-69
2022/10/06 10:39:41;;;;;;;;;;;;;;;15.81;70.13;102945.06;5040645;28;19944;-69
2022/10/06 10:42:17;;;;;;;;;;;;;;;15.97;69.92;102949.13;5028855;28;19924;-67
2022/10/06 10:44:50;;;;;;;;;;;;;;;16.03;66.43;102952.78;5034969;28;19970;-68
2022/10/06 10:47:19;;;;;;;;;;;;;;;16.04;68.50;102941.44;5034177;28;19987;-69
2022/10/06 10:49:47;;;;;;;;;;;;;;;16.07;67.15;102949.44;5030657;28;19925;-68
2022/10/06 10:52:20;;;;;;;;;;;;;;;16.11;67.66;102946.06;5042780;28;19921;-68
2022/10/06 10:54:49;;;;;;;;;;;;;;;16.16;67.80;102941.84;5033493;28;19928;-69
2022/10/06 10:57:16;;;;;;;;;;;;;;;16.26;66.64;102946.56;5026309;28;19921;-69
2022/10/06 10:59:59;;;;;;;;;;;;;;;16.37;67.80;102949.59;5033792;28;20016;-68
2022/10/06 11:02:25;;;;;;;;;;;;;;;16.47;66.35;102948.16;5020999;28;20616;-68
2022/10/06 11:04:52;;;;;;;;;;;;;;;16.47;66.15;102950.78;5020696;28;20440;-68
2022/10/06 11:07:29;;;;;;;;;;;;;;;16.52;65.99;102951.81;5027775;28;20008;-69
2022/10/06 11:10:00;;;;;;;;;;;;;;;16.60;67.36;102954.72;5020257;28;20043;-69
2022/10/06 11:12:25;;;;;;;;;;;;;;;16.67;64.39;102959.34;5015683;28;20027;-69
2022/10/06 11:14:58;;;;;;;;;;;;;;;16.73;63.06;102951.63;5019838;28;20008;-68
2022/10/06 11:17:45;;;;;;;;;;;;;;;16.74;61.43;102953.41;5018670;28;20011;-68
2022/10/06 11:20:19;;;;;;;;;;;;;;;16.73;64.82;102948.09;5018231;28;19928;-69
2022/10/06 11:23:14;;;;;;;;;;;;;;;16.71;63.88;102960.31;5019232;28;20031;-67
2022/10/06 11:25:58;;;;;;;;;;;;;;;16.65;64.39;102956.63;5024988;28;19923;-69
2022/10/06 11:28:43;;;;;;;;;;;;;;;16.59;62.96;102956.44;5027062;28;19924;-73
2022/10/06 11:31:14;;;;;;;;;;;;;;;16.61;64.40;102960.03;5024439;28;19936;-73
2022/10/06 11:33:51;;;;;;;;;;;;;;;16.66;64.54;102957.56;5027034;28;19921;-73
2022/10/06 11:36:37;;;;;;;;;;;;;;;16.70;64.39;102946.28;5026291;28;19921;-73
2022/10/06 11:39:25;;;;;;;;;;;;;;;16.72;64.28;102952.47;5015233;28;21493;-72
2022/10/06 11:41:56;;;;;;;;;;;;;;;16.84;65.07;102942.34;5025035;28;19999;-72
2022/10/06 11:44:27;;;;;;;;;;;;;;;16.92;64.58;102945.25;5032227;28;19921;-72
2022/10/06 11:46:55;;;;;;;;;;;;;;;17.00;64.96;102943.75;5031417;28;20387;-72
2022/10/06 11:49:29;;;;;;;;;;;;;;;17.12;65.00;102947.56;5034581;28;20114;-72
2022/10/06 11:52:06;;;;;;;;;;;;;;;17.25;64.43;102952.38;5030172;28;20041;-72
2022/10/06 11:55:00;;;;;;;;;;;;;;;17.34;61.11;102954.41;5025177;28;20436;-70
2022/10/06 11:57:25;;;;;;;;;;;;;;;17.41;62.52;102942.28;5034306;28;19932;-71
2022/10/06 11:59:51;;;;;;;;;;;;;;;17.46;61.32;102944.19;5029653;28;20370;-70
2022/10/06 12:02:28;;;;;;;;;;;;;;;17.50;62.82;102939.94;5032799;28;19921;-71
2022/10/06 12:05:08;;;;;;;;;;;;;;;17.50;58.89;102943.44;5032015;28;19960;-70
2022/10/06 12:07:52;;;;;;;;;;;;;;;17.34;62.42;102939.47;5034241;28;19921;-70
2022/10/06 12:10:26;;;;;;;;;;;;;;;17.24;61.27;102936.53;5039791;28;19932;-71
2022/10/06 12:13:06;;;;;;;;;;;;;;;17.16;61.25;102933.66;5031084;28;19968;-70
2022/10/06 12:15:35;;;;;;;;;;;;;;;17.12;62.91;102937.97;5034183;28;19979;-70
2022/10/06 12:18:00;;;;;;;;;;;;;;;17.06;61.23;102935.16;5041989;28;19956;-73
2022/10/06 12:20:43;;;;;;;;;;;;;;;17.02;59.42;102931.50;5033034;28;19998;-70
2022/10/06 12:23:08;;;;;;;;;;;;;;;17.09;61.01;102932.59;5028746;28;19924;-70
2022/10/06 12:25:45;;;;;;;;;;;;;;;17.20;61.83;102927.63;5030313;28;19927;-70
2022/10/06 12:28:29;;;;;;;;;;;;;;;17.30;61.36;102927.06;5031920;28;20069;-66
2022/10/06 12:31:23;;;;;;;;;;;;;;;17.34;60.78;102925.41;5028711;28;20557;-66
2022/10/06 12:33:49;;;;;;;;;;;;;;;17.41;61.63;102921.19;5030494;28;20011;-66
2022/10/06 12:36:20;;;;;;;;;;;;;;;17.57;61.94;102926.06;5029533;28;19924;-66
2022/10/06 12:39:01;;;;;;;;;;;;;;;17.75;61.23;102925.69;5034401;28;19927;-65
2022/10/06 12:41:45;;;;;;;;;;;;;;;17.81;61.39;102924.94;5032839;28;19925;-66
2022/10/06 12:44:21;;;;;;;;;;;;;;;17.84;60.29;102930.31;5031213;28;19924;-67
2022/10/06 12:46:48;;;;;;;;;;;;;;;17.83;59.96;102925.88;5035056;28;19928;-72
2022/10/06 12:49:21;;;;;;;;;;;;;;;17.80;60.76;102921.44;5037696;28;20283;-68
2022/10/06 12:51:47;;;;;;;;;;;;;;;17.83;61.37;102918.88;5035233;28;19925;-66
2022/10/06 12:54:19;;;;;;;;;;;;;;;17.84;60.10;102927.66;5026210;28;19928;-65
2022/10/06 12:56:57;;;;;;;;;;;;;;;17.76;59.29;102922.19;5033909;28;19917;-69